Lingle, WY (82223)

7:48 AM MDT on May 29, 2015 (GMT -0600)
lingle | | Change Station
CLOSE
Current Station
Personal Weather Station
Location: Lingle, WY
Elevation: 4180 ft
Nearby Weather Stations
Active Advisory: Flood Warning

Elev 4180 ft 42.14 °N, 104.35 °W | Updated 12 minutes ago

Rain
Rain
52.7 °F
Feels Like 52.7 °F
N
1.1
Wind Variable Wind from NNW

Today
High -- | Low -- °F
--% Chance of Precip.
Yesterday
High -- | Low -- °F
Precip. -- in
5:25 AM 8:24 PM
Waxing Gibbous, 83% visible
Pressure 30.05 in
Visibility 10.0 miles
Clouds Mostly Cloudy 7500 ft
Overcast 9000 ft
Dew Point 50 °F
Humidity 92%
Rainfall 0.09 in
Snow Depth Not available.
UV 0 out of 12
Pollen 1.10 out of 12
Air Quality Not available.
Flu Activity Sporadic
METAR KTOR 291253Z AUTO 30007KT 10SM -RA BKN075 OVC090 12/10 A3013 RMK AO2 RAB26 SLP175 P0000 T01170100

More Conditions Fewer Conditions

Pressure 30.05 in
Visibility 10.0 miles
Clouds Mostly Cloudy 7500 ft
Overcast 9000 ft
Dew Point 50 °F
Humidity 92%
Rainfall 0.09 in
Snow Depth Not available.
UV 0 out of 12
Pollen 1.10 out of 12
Air Quality Not available.
Flu Activity Sporadic
METAR KTOR 291253Z AUTO 30007KT 10SM -RA BKN075 OVC090 12/10 A3013 RMK AO2 RAB26 SLP175 P0000 T01170100

More Conditions Fewer Conditions

10-Day Weather Forecast

Almanac

Astronomy

May. 29, 2015 Rise Set
Actual Time
Civil Twilight
Nautical Twilight
Astronomical Twilight
Moon
Length of Visible Light
Length of Day
Tomorrow will be .
, % of the Moon is Illuminated

Today's Extremes

State Highs State Lows

Community

WunderPhotos

Upload Photos

1,825,262 photos uploaded!

WunderBlogs® & News

Nearby

Air Quality

  Air Quality AQ Index Pollutant
Not available.

Snow Depth

Station Depth Elevation

Earthquake Activity

City Distance Mag. Time & Date
Minimum magnitude displayed is 2.5.

Coastal Water Temperatures

Place Temperature

Stations

Nearby Weather Stations

Station Location Temp. Windchill Dew Point Humidity Wind Precip. Elev Updated Type
                   
Flood Warning
Statement as of 8:07 PM MDT on May 28, 2015

* Flood Warning continues for
the Laramie river near Fort Laramie
* the river will remain steady near 8.3 feet through Friday morning then
fall below 8.0 feet late Friday night.


Flood impacts and crest history information is displayed at:
http:///water.Weather.Gov/ahps2/index.Php?Wfo=cys&gage=flaw4

* impact... at 8.0 feet... water reaches above the base of the bridge of
Highway 160 immediately west of The Fort Laramie State Park property
(about 1.5 miles upstream from the gage).
* Flood history... this crest compares to a previous crest of 8.0 feet
on may 6 1971.


Lat... Lon 4212 10468 4225 10468 4223 10451 4216 10446
      4212 10449